Time;durP1;ratioP1;P1;durP2;ratioP2;P2;SDS_P1;SDS_P2;PMS_P1;PMS_P2;Temp;Humidity;BMP_temperature;BMP_pressure;BME280_temperature;BME280_humidity;BME280_pressure;Samples;Min_cycle;Max_cycle;Signal;HPM_P1;HPM_P2
2022/05/09 00:00:29;;;;;;;12.47;6.77;;;;;;;18.81;34.24;95534.69;4931278;29;20441;-58
2022/05/09 00:02:56;;;;;;;15.07;6.60;;;;;;;18.62;34.66;95528.63;4931339;29;20446;-59
2022/05/09 00:05:26;;;;;;;13.20;6.90;;;;;;;18.58;34.32;95533.72;4930931;29;20436;-58
2022/05/09 00:07:53;;;;;;;13.50;6.70;;;;;;;18.24;34.98;95522.53;4931210;29;20492;-59
2022/05/09 00:10:24;;;;;;;20.13;6.73;;;;;;;18.46;34.33;95536.03;4931427;29;20453;-56
2022/05/09 00:12:51;;;;;;;9.57;5.90;;;;;;;18.56;34.32;95535.06;4934773;29;20452;-53
2022/05/09 00:15:19;;;;;;;10.67;5.93;;;;;;;18.68;34.20;95538.88;4934260;29;20470;-59
2022/05/09 00:17:46;;;;;;;11.70;6.10;;;;;;;18.51;34.56;95543.91;4934996;29;20444;-59
2022/05/09 00:20:16;;;;;;;8.30;5.67;;;;;;;18.59;34.40;95540.63;4934645;29;20523;-58
2022/05/09 00:22:50;;;;;;;13.60;5.77;;;;;;;18.63;34.83;95538.94;4935084;29;20444;-58
2022/05/09 00:25:19;;;;;;;9.73;5.60;;;;;;;18.39;34.97;95543.56;4934447;29;20527;-59
2022/05/09 00:27:46;;;;;;;7.83;5.37;;;;;;;18.38;34.54;95552.56;4934639;29;20452;-59
2022/05/09 00:30:14;;;;;;;7.63;5.50;;;;;;;18.37;34.66;95548.34;4934218;29;20444;-59
2022/05/09 00:32:41;;;;;;;10.33;4.90;;;;;;;18.25;34.68;95555.94;4934927;29;20504;-60
2022/05/09 00:35:10;;;;;;;6.97;5.13;;;;;;;18.07;34.71;95544.25;4934098;29;20536;-59
2022/05/09 00:37:37;;;;;;;7.77;5.27;;;;;;;18.16;34.64;95547.06;4934576;29;20468;-58
2022/05/09 00:40:08;;;;;;;5.87;4.43;;;;;;;18.29;34.46;95551.66;4933429;29;20452;-59
2022/05/09 00:42:54;;;;;;;8.33;4.57;;;;;;;18.37;34.38;95548.34;4934752;29;20452;-58
2022/05/09 00:45:24;;;;;;;7.57;4.23;;;;;;;18.38;34.94;95543.81;4933822;29;20460;-57
2022/05/09 00:47:51;;;;;;;9.23;4.80;;;;;;;18.18;34.89;95550.22;4934142;29;20451;-59
2022/05/09 00:50:24;;;;;;;6.00;4.50;;;;;;;18.12;35.20;95556.66;4933927;29;20467;-59
2022/05/09 00:52:58;;;;;;;10.53;4.77;;;;;;;18.33;34.28;95552.66;4934335;29;20452;-58
2022/05/09 00:55:40;;;;;;;12.07;5.37;;;;;;;18.16;34.98;95557.66;4933875;29;20903;-59
2022/05/09 00:58:12;;;;;;;11.00;5.17;;;;;;;17.91;34.95;95556.16;4934516;29;20535;-57
2022/05/09 01:00:41;;;;;;;8.50;5.27;;;;;;;17.73;35.51;95564.06;4933208;29;21003;-58
2022/05/09 01:03:13;;;;;;;6.93;5.23;;;;;;;17.85;35.05;95545.88;4933874;29;20931;-57
2022/05/09 01:05:50;;;;;;;9.53;5.07;;;;;;;17.76;35.05;95552.88;4933796;29;20439;-58
2022/05/09 01:08:19;;;;;;;10.40;5.30;;;;;;;17.38;35.85;95546.69;4933744;29;20475;-59
2022/05/09 01:10:47;;;;;;;6.20;4.57;;;;;;;17.01;36.22;95542.03;4933154;29;20885;-57
2022/05/09 01:13:19;;;;;;;8.87;5.03;;;;;;;17.05;36.60;95553.63;4933857;29;20951;-57
2022/05/09 01:15:49;;;;;;;8.80;4.70;;;;;;;17.11;36.59;95557.81;4916633;29;20544;-57
2022/05/09 01:18:16;;;;;;;8.90;4.70;;;;;;;17.17;36.56;95551.38;4933591;29;20515;-57
2022/05/09 01:20:43;;;;;;;7.77;4.60;;;;;;;17.34;36.26;95544.84;4933296;29;20555;-59
2022/05/09 01:23:11;;;;;;;11.53;4.73;;;;;;;17.22;36.45;95553.97;4933714;29;20455;-55
2022/05/09 01:25:39;;;;;;;6.77;4.23;;;;;;;17.48;35.87;95556.41;4933232;29;20448;-57
2022/05/09 01:28:06;;;;;;;6.50;4.67;;;;;;;17.40;36.68;95546.41;4933357;29;20472;-58
2022/05/09 01:30:52;;;;;;;6.50;4.27;;;;;;;17.56;36.16;95547.81;4933150;29;21128;-59
2022/05/09 01:33:32;;;;;;;11.47;4.67;;;;;;;17.46;35.80;95548.72;4933712;29;20440;-59
2022/05/09 01:36:28;;;;;;;7.97;4.57;;;;;;;17.27;36.43;95555.81;4933371;29;20548;-59
2022/05/09 01:39:09;;;;;;;5.87;4.90;;;;;;;17.36;36.95;95550.66;4933449;29;20539;-57
2022/05/09 01:41:41;;;;;;;7.37;4.73;;;;;;;17.44;36.93;95548.22;4933346;29;21011;-59
2022/05/09 01:44:10;;;;;;;7.77;4.80;;;;;;;17.17;37.24;95551.38;4932982;29;20496;-59
2022/05/09 01:49:29;;;;;;;8.80;5.37;;;;;;;17.47;36.70;95549.50;4932842;29;20436;-58
2022/05/09 01:49:30;;;;;;;9.43;4.80;;;;;;;17.36;36.15;95545.38;4933501;29;20551;-56
2022/05/09 01:52:01;;;;;;;9.57;5.37;;;;;;;17.29;37.16;95552.88;4932753;29;20871;-56
2022/05/09 01:54:28;;;;;;;12.20;5.60;;;;;;;17.10;36.50;95561.53;4932989;29;20806;-56
2022/05/09 01:56:55;;;;;;;9.93;5.47;;;;;;;17.28;36.61;95557.38;4932465;29;20504;-59
2022/05/09 01:59:22;;;;;;;8.73;5.50;;;;;;;17.26;36.83;95553.44;4933303;29;20472;-57
2022/05/09 02:01:56;;;;;;;12.90;5.37;;;;;;;17.03;37.26;95550.47;4932270;29;20458;-59
2022/05/09 02:04:23;;;;;;;7.07;4.87;;;;;;;17.23;37.09;95552.94;4932709;29;20484;-58
2022/05/09 02:06:51;;;;;;;10.27;5.50;;;;;;;17.33;36.97;95553.88;4932481;29;20555;-56
2022/05/09 02:09:19;;;;;;;8.17;4.93;;;;;;;17.22;37.05;95559.28;4932328;29;20480;-54
2022/05/09 02:11:46;;;;;;;9.37;5.57;;;;;;;17.24;37.27;95559.78;4932569;29;20452;-57
2022/05/09 02:14:13;;;;;;;14.23;5.47;;;;;;;17.16;37.26;95563.06;4932513;29;20456;-56
2022/05/09 02:16:40;;;;;;;11.00;5.37;;;;;;;16.88;37.89;95563.84;4932551;29;20444;-57
2022/05/09 02:19:07;;;;;;;8.37;5.47;;;;;;;16.87;37.32;95567.56;4932438;29;21042;-59
2022/05/09 02:21:34;;;;;;;14.13;5.63;;;;;;;16.89;38.02;95560.16;4931778;29;20452;-56
2022/05/09 02:24:02;;;;;;;10.27;5.33;;;;;;;17.13;36.81;95560.97;4932590;29;20488;-58
2022/05/09 02:26:29;;;;;;;10.07;5.70;;;;;;;16.81;37.95;95566.03;4932005;29;20979;-59
2022/05/09 02:28:56;;;;;;;13.57;5.97;;;;;;;16.16;39.23;95569.13;4932716;29;20448;-57
2022/05/09 02:31:23;;;;;;;9.83;5.57;;;;;;;16.13;39.52;95572.28;4932023;29;20472;-57
2022/05/09 02:33:50;;;;;;;9.43;5.50;;;;;;;16.72;38.37;95565.03;4931715;29;20440;-59
2022/05/09 02:36:17;;;;;;;10.77;5.80;;;;;;;16.67;37.56;95578.31;4932157;29;20436;-58
2022/05/09 02:38:44;;;;;;;10.13;5.83;;;;;;;16.50;38.12;95572.63;4932438;29;20484;-58
2022/05/09 02:41:11;;;;;;;7.67;5.57;;;;;;;16.16;38.10;95577.06;4931901;29;20449;-59
2022/05/09 02:43:38;;;;;;;11.37;5.90;;;;;;;15.66;38.94;95583.34;4931851;29;20436;-55
2022/05/09 02:46:10;;;;;;;11.80;6.00;;;;;;;15.93;38.60;95577.72;4931909;29;20449;-58
2022/05/09 02:48:38;;;;;;;10.17;5.33;;;;;;;16.18;37.93;95580.22;4932212;29;20487;-55
2022/05/09 02:51:06;;;;;;;10.17;5.50;;;;;;;16.28;37.43;95588.06;4931641;29;20450;-58
2022/05/09 02:53:34;;;;;;;9.37;5.37;;;;;;;15.63;38.60;95588.38;4932150;29;20436;-58
2022/05/09 02:56:02;;;;;;;9.73;5.80;;;;;;;15.82;39.41;95592.03;4931899;29;20508;-56
2022/05/09 02:58:29;;;;;;;16.97;6.33;;;;;;;16.19;39.05;95587.06;4932202;29;20927;-55
2022/05/09 03:00:56;;;;;;;14.03;6.50;;;;;;;15.93;39.92;95585.63;4931765;29;20428;-55
2022/05/09 03:06:09;;;;;;;12.63;7.07;;;;;;;15.86;40.12;95593.84;4931701;29;20882;-58
2022/05/09 03:08:36;;;;;;;11.17;7.23;;;;;;;15.99;39.48;95592.47;4931877;29;20476;-57
2022/05/09 03:11:03;;;;;;;17.93;8.23;;;;;;;16.21;38.97;95590.22;4931338;29;20538;-60
2022/05/09 03:13:30;;;;;;;14.37;8.07;;;;;;;16.28;38.47;95596.00;4932206;29;20452;-55
2022/05/09 03:16:01;;;;;;;12.70;8.33;;;;;;;16.27;39.35;95602.38;4932101;29;20459;-58
2022/05/09 03:18:28;;;;;;;20.40;8.50;;;;;;;16.22;39.09;95602.41;4932357;29;20434;-58
2022/05/09 03:20:55;;;;;;;20.90;7.53;;;;;;;16.27;38.60;95583.84;4931682;29;20448;-56
2022/05/09 03:23:22;;;;;;;17.73;8.67;;;;;;;16.45;39.25;95609.66;4932103;29;20485;-57
2022/05/09 03:25:49;;;;;;;18.07;8.67;;;;;;;16.40;39.77;95604.41;4931156;29;21034;-53
2022/05/09 03:28:21;;;;;;;18.97;8.70;;;;;;;14.94;42.11;95620.69;4931910;29;20440;-59
2022/05/09 03:30:56;;;;;;;17.90;9.27;;;;;;;15.10;42.26;95621.47;4931553;29;20448;-57
2022/05/09 03:33:26;;;;;;;20.80;7.63;;;;;;;15.13;41.46;95610.38;4931894;29;20464;-56
2022/05/09 03:35:59;;;;;;;11.57;7.77;;;;;;;15.26;41.75;95620.41;4931012;29;20480;-60
2022/05/09 03:38:26;;;;;;;13.90;8.17;;;;;;;15.24;41.35;95611.94;4931710;29;20448;-59
2022/05/09 03:40:53;;;;;;;11.20;7.60;;;;;;;15.00;41.32;95621.47;4931360;29;20447;-58
2022/05/09 03:43:20;;;;;;;12.37;8.33;;;;;;;15.24;41.51;95618.03;4931557;29;20564;-60
2022/05/09 03:45:50;;;;;;;14.00;8.30;;;;;;;14.51;43.00;95605.38;4934184;29;20870;-56
2022/05/09 03:48:17;;;;;;;13.37;8.80;;;;;;;15.11;41.66;95596.66;4935790;29;20444;-59
2022/05/09 03:50:44;;;;;;;12.90;8.30;;;;;;;14.90;42.03;95617.00;4934550;29;20811;-56
2022/05/09 03:53:11;;;;;;;15.57;8.60;;;;;;;14.66;41.26;95618.59;4935641;29;20563;-57
2022/05/09 03:55:38;;;;;;;14.97;11.23;;;;;;;14.33;41.98;95616.41;4934732;29;20930;-56
2022/05/09 03:58:05;;;;;;;21.33;10.83;;;;;;;14.06;42.06;95615.78;4935443;29;20500;-59
2022/05/09 04:00:35;;;;;;;14.90;10.40;;;;;;;14.16;41.90;95600.00;4933805;29;20440;-59
2022/05/09 04:03:03;;;;;;;23.83;11.20;;;;;;;14.98;40.15;95623.63;4934487;29;20451;-56
2022/05/09 04:05:31;;;;;;;19.93;9.17;;;;;;;14.72;40.81;95624.66;4934178;29;20582;-57
2022/05/09 04:08:01;;;;;;;18.03;9.43;;;;;;;15.53;40.11;95625.41;4934691;29;20511;-58
2022/05/09 04:10:31;;;;;;;17.93;8.63;;;;;;;15.76;39.92;95625.59;4934556;29;20535;-54
2022/05/09 04:12:59;;;;;;;18.03;9.70;;;;;;;15.89;39.78;95613.66;4935251;29;20991;-60
2022/05/09 04:18:17;;;;;;;15.90;8.93;;;;;;;16.21;38.64;95624.59;4934731;29;20447;-56
2022/05/09 04:20:46;;;;;;;15.93;8.67;;;;;;;16.36;38.45;95624.53;4933979;29;20994;-58
2022/05/09 04:23:14;;;;;;;18.57;9.50;;;;;;;16.17;39.13;95628.84;4935030;29;20437;-59
2022/05/09 04:25:42;;;;;;;28.80;9.77;;;;;;;16.02;40.51;95628.94;4934141;29;20476;-61
2022/05/09 04:28:15;;;;;;;24.57;9.53;;;;;;;15.87;40.90;95636.94;4934980;29;20528;-57
2022/05/09 04:30:42;;;;;;;17.00;8.97;;;;;;;15.97;40.34;95632.38;4934405;29;20814;-59
2022/05/09 04:33:10;;;;;;;15.60;8.50;;;;;;;16.03;40.82;95636.59;4934548;29;20501;-59
2022/05/09 04:35:39;;;;;;;23.53;8.87;;;;;;;16.16;40.67;95628.09;4934167;29;20451;-60
2022/05/09 04:38:06;;;;;;;21.03;9.37;;;;;;;16.23;41.10;95635.72;4934712;29;20452;-58
2022/05/09 04:40:37;;;;;;;19.97;9.67;;;;;;;16.11;41.33;95632.59;4933853;29;20466;-57
2022/05/09 04:43:04;;;;;;;24.30;10.67;;;;;;;16.29;40.32;95634.63;4934965;29;20919;-57
2022/05/09 04:45:33;;;;;;;16.73;9.40;;;;;;;16.54;40.36;95637.16;4933788;29;21026;-60
2022/05/09 04:48:00;;;;;;;15.80;9.07;;;;;;;16.54;40.42;95642.44;4933886;29;20805;-54
2022/05/09 04:50:28;;;;;;;17.80;8.83;;;;;;;16.27;40.63;95639.41;4932972;29;20488;-57
2022/05/09 04:52:55;;;;;;;32.53;16.20;;;;;;;16.69;39.26;95638.91;4933213;29;20447;-58
2022/05/09 04:55:24;;;;;;;31.70;19.00;;;;;;;16.47;39.82;95636.66;4934148;29;20472;-58
2022/05/09 04:57:52;;;;;;;18.40;9.20;;;;;;;15.99;41.04;95634.75;4933762;29;20471;-59
2022/05/09 05:00:25;;;;;;;18.20;7.63;;;;;;;15.06;41.79;95642.34;4933840;29;20464;-59
2022/05/09 05:02:54;;;;;;;16.03;8.07;;;;;;;15.66;41.53;95646.75;4933893;29;20460;-57
2022/05/09 05:05:22;;;;;;;15.40;8.50;;;;;;;16.63;39.17;95646.09;4933552;29;20488;-59
2022/05/09 05:07:49;;;;;;;12.90;6.87;;;;;;;15.86;39.52;95644.06;4933520;29;20480;-58
2022/05/09 05:10:18;;;;;;;13.47;7.00;;;;;;;16.53;39.18;95640.06;4933898;29;20563;-60
2022/05/09 05:12:45;;;;;;;13.57;7.00;;;;;;;16.37;39.34;95636.69;4934010;29;20445;-56
2022/05/09 05:15:13;;;;;;;81.47;61.57;;;;;;;16.01;40.67;95643.22;4933530;29;20523;-62
2022/05/09 05:17:40;;;;;;;44.33;32.10;;;;;;;16.33;38.50;95634.88;4934063;29;20499;-57
2022/05/09 05:20:12;;;;;;;16.20;7.47;;;;;;;16.45;38.47;95636.13;4933464;29;20479;-59
2022/05/09 05:22:41;;;;;;;15.83;7.23;;;;;;;17.12;37.17;95638.84;4934355;29;20924;-56
2022/05/09 05:25:10;;;;;;;16.07;7.63;;;;;;;17.28;38.07;95633.41;4933108;29;20491;-58
2022/05/09 05:27:38;;;;;;;18.63;7.40;;;;;;;16.43;40.83;95637.44;4933792;29;20448;-58
2022/05/09 05:30:06;;;;;;;11.90;7.20;;;;;;;17.14;38.48;95636.72;4933282;29;20456;-58
2022/05/09 05:32:36;;;;;;;15.03;7.30;;;;;;;17.45;38.20;95633.75;4933476;29;20463;-59
2022/05/09 05:35:05;;;;;;;16.93;8.13;;;;;;;16.44;40.73;95642.47;4932087;29;20954;-60
2022/05/09 05:37:33;;;;;;;14.97;8.77;;;;;;;17.08;39.57;95643.09;4932396;29;20481;-59
2022/05/09 05:40:00;;;;;;;17.67;7.87;;;;;;;16.52;38.46;95639.28;4913541;29;20459;-58
2022/05/09 05:42:29;;;;;;;15.13;8.80;;;;;;;16.84;38.79;95636.94;4931079;29;20584;-59
2022/05/09 05:44:56;;;;;;;18.63;8.57;;;;;;;17.36;37.69;95638.09;4930430;29;20486;-59
2022/05/09 05:47:23;;;;;;;16.37;8.73;;;;;;;17.53;37.62;95638.50;4931729;29;20447;-57
2022/05/09 05:49:50;;;;;;;15.13;8.37;;;;;;;16.83;38.10;95635.38;4931798;29;20456;-60
2022/05/09 05:52:17;;;;;;;20.47;8.17;;;;;;;16.89;38.23;95634.28;4933427;29;20456;-58
2022/05/09 05:54:46;;;;;;;12.00;8.17;;;;;;;16.64;38.62;95641.59;4933261;29;20435;-58
2022/05/09 05:57:22;;;;;;;19.77;8.43;;;;;;;16.52;39.00;95639.28;4933337;29;20456;-62
2022/05/09 05:59:57;;;;;;;17.43;7.80;;;;;;;17.04;38.83;95634.13;4932996;29;20463;-60
2022/05/09 06:02:26;;;;;;;17.43;7.97;;;;;;;16.56;38.98;95644.81;4933242;29;20462;-61
2022/05/09 06:04:53;;;;;;;19.67;7.97;;;;;;;16.74;38.41;95642.31;4932915;29;20502;-59
2022/05/09 06:07:22;;;;;;;19.13;8.30;;;;;;;16.12;40.14;95639.47;4932786;29;20464;-63
2022/05/09 06:09:52;;;;;;;17.23;7.73;;;;;;;16.67;39.26;95644.47;4932503;29;20452;-57
2022/05/09 06:12:22;;;;;;;12.60;7.70;;;;;;;17.00;39.37;95641.06;4933034;29;20448;-55
2022/05/09 06:15:24;;;;;;;16.87;7.67;;;;;;;17.37;38.32;95639.69;4933014;29;20449;-57
2022/05/09 06:17:37;;;;;;;10.37;7.90;;;;;;;17.73;37.08;95638.28;4932959;29;20448;-56
2022/05/09 06:20:05;;;;;;;14.50;8.03;;;;;;;18.35;36.35;95640.72;4933161;29;20439;-58
2022/05/09 06:22:36;;;;;;;11.97;7.40;;;;;;;18.27;36.55;95643.19;4932903;29;20979;-57
2022/05/09 06:25:04;;;;;;;13.23;7.00;;;;;;;17.88;37.48;95638.91;4932464;29;20491;-62
2022/05/09 06:27:32;;;;;;;15.33;7.10;;;;;;;18.51;36.11;95639.47;4932929;29;20487;-61
2022/05/09 06:30:04;;;;;;;13.33;7.47;;;;;;;18.34;37.71;95639.13;4932039;29;20444;-61
2022/05/09 06:32:31;;;;;;;11.40;7.23;;;;;;;18.53;38.02;95637.31;4932694;29;20439;-60
2022/05/09 06:35:06;;;;;;;15.67;7.13;;;;;;;19.47;36.57;95635.34;4932339;29;20456;-61
2022/05/09 06:37:34;;;;;;;19.10;8.00;;;;;;;18.97;38.15;95636.94;4932552;29;20494;-58
2022/05/09 06:40:01;;;;;;;13.07;7.50;;;;;;;19.07;36.58;95642.88;4932315;29;20511;-58
2022/05/09 06:42:28;;;;;;;15.57;7.40;;;;;;;18.60;37.23;95629.78;4932300;29;21014;-58
2022/05/09 06:44:56;;;;;;;13.47;7.47;;;;;;;19.07;37.84;95631.44;4931802;29;21144;-59
2022/05/09 06:47:23;;;;;;;20.07;8.10;;;;;;;19.16;37.47;95627.84;4932500;29;20455;-58
2022/05/09 06:49:50;;;;;;;13.87;7.43;;;;;;;19.64;35.47;95631.03;4931406;29;20514;-59
2022/05/09 06:52:17;;;;;;;13.33;7.30;;;;;;;19.51;36.55;95625.69;4932003;29;20982;-60
2022/05/09 06:54:43;;;;;;;16.17;7.77;;;;;;;18.93;38.59;95634.06;4932203;29;20504;-61
2022/05/09 06:57:10;;;;;;;19.43;7.80;;;;;;;19.32;37.80;95632.94;4931291;29;20990;-57
2022/05/09 06:59:38;;;;;;;15.63;8.17;;;;;;;19.12;36.77;95623.41;4932201;29;20483;-58
2022/05/09 07:02:06;;;;;;;14.23;8.63;;;;;;;19.80;35.66;95634.16;4931567;29;20546;-54
2022/05/09 07:04:33;;;;;;;14.73;8.10;;;;;;;20.16;34.69;95621.78;4932147;29;20892;-57
2022/05/09 07:07:00;;;;;;;13.43;8.17;;;;;;;20.52;34.13;95617.28;4931573;29;21002;-62
2022/05/09 07:09:27;;;;;;;15.90;8.33;;;;;;;20.20;34.21;95614.78;4931940;29;20468;-58
2022/05/09 07:11:54;;;;;;;12.73;7.87;;;;;;;20.06;35.05;95622.75;4931195;29;20452;-53
2022/05/09 07:14:22;;;;;;;20.60;8.87;;;;;;;20.72;34.24;95608.84;4932075;29;20470;-58
2022/05/09 07:16:49;;;;;;;19.23;9.23;;;;;;;21.00;34.66;95612.22;4931437;29;21255;-56
2022/05/09 07:19:16;;;;;;;24.73;8.43;;;;;;;20.57;35.49;95611.06;4931495;29;20971;-57
2022/05/09 07:21:43;;;;;;;13.50;8.67;;;;;;;20.63;35.33;95610.66;4931457;29;20460;-58
2022/05/09 07:24:10;;;;;;;15.07;8.63;;;;;;;21.25;33.80;95605.47;4931907;29;20483;-56
2022/05/09 07:26:37;;;;;;;13.57;8.03;;;;;;;21.49;33.29;95601.38;4931328;29;20480;-60
2022/05/09 07:29:05;;;;;;;12.93;7.90;;;;;;;20.74;34.92;95612.00;4931957;29;21272;-55
2022/05/09 07:31:32;;;;;;;14.17;8.07;;;;;;;20.93;34.76;95617.13;4931373;29;20448;-58
2022/05/09 07:33:59;;;;;;;13.67;7.63;;;;;;;20.68;35.51;95612.41;4931872;29;20452;-58
2022/05/09 07:36:26;;;;;;;10.63;7.03;;;;;;;20.66;33.22;95607.38;4931236;29;20432;-58
2022/05/09 07:38:53;;;;;;;16.13;7.47;;;;;;;20.59;33.84;95604.34;4932221;29;20452;-61
2022/05/09 07:41:20;;;;;;;16.77;7.00;;;;;;;21.20;33.66;95610.94;4930894;29;20531;-59
2022/05/09 07:43:47;;;;;;;16.63;7.93;;;;;;;21.40;34.18;95613.09;4931715;29;20443;-56
2022/05/09 07:46:14;;;;;;;12.93;6.97;;;;;;;21.64;31.60;95602.88;4931121;29;20468;-56
2022/05/09 07:49:01;;;;;;;12.97;6.83;;;;;;;21.27;31.42;95608.63;4914684;29;20459;-58
2022/05/09 07:51:28;;;;;;;12.50;6.00;;;;;;;21.75;32.57;95609.50;4931188;29;21042;-60
2022/05/09 07:53:54;;;;;;;17.50;5.70;;;;;;;22.35;32.01;95605.16;4931928;29;20448;-58
2022/05/09 07:56:21;;;;;;;7.80;5.17;;;;;;;21.97;31.34;95596.09;4930710;29;20868;-54
2022/05/09 07:58:48;;;;;;;10.77;5.53;;;;;;;21.97;30.74;95606.78;4931598;29;20811;-56
2022/05/09 08:01:15;;;;;;;8.60;4.70;;;;;;;22.24;30.63;95609.22;4931176;29;20432;-54
2022/05/09 08:03:43;;;;;;;38.90;7.00;;;;;;;22.73;30.40;95592.81;4931811;29;20211;-57
2022/05/09 08:06:10;;;;;;;12.60;5.33;;;;;;;22.39;31.49;95602.66;4931383;29;20712;-59
2022/05/09 08:08:39;;;;;;;4.80;3.90;;;;;;;22.87;31.05;95608.66;4931456;29;20319;-56
2022/05/09 08:11:12;;;;;;;9.43;3.50;;;;;;;22.40;30.23;95602.34;4931236;29;20267;-57
2022/05/09 08:13:41;;;;;;;7.10;4.30;;;;;;;22.73;30.57;95600.81;4931831;29;20212;-55
2022/05/09 08:16:09;;;;;;;9.70;4.40;;;;;;;22.82;32.35;95598.94;4931102;29;20220;-63
2022/05/09 08:18:36;;;;;;;7.63;4.33;;;;;;;23.05;31.09;95597.66;4931924;29;20649;-59
2022/05/09 08:21:04;;;;;;;5.50;3.57;;;;;;;23.13;29.99;95607.56;4931270;29;20299;-62
2022/05/09 08:23:31;;;;;;;9.97;3.60;;;;;;;22.94;29.64;95599.06;4931679;29;20196;-56
2022/05/09 08:26:02;;;;;;;8.13;3.97;;;;;;;23.20;29.49;95601.72;4930961;29;20217;-61
2022/05/09 08:28:31;;;;;;;11.50;3.80;;;;;;;23.09;29.18;95595.13;4931649;29;20307;-58
2022/05/09 08:30:58;;;;;;;6.57;3.57;;;;;;;23.58;27.30;95602.59;4930688;29;20200;-60
2022/05/09 08:33:28;;;;;;;8.03;3.60;;;;;;;23.84;28.33;95594.47;4934825;29;20204;-58
2022/05/09 08:35:56;;;;;;;10.80;3.60;;;;;;;23.39;29.23;95588.03;4934328;29;20223;-57
2022/05/09 08:38:23;;;;;;;4.87;3.40;;;;;;;23.70;27.86;95600.03;4934676;29;20192;-59
2022/05/09 08:41:13;;;;;;;5.20;2.80;;;;;;;23.31;27.88;95597.63;4934130;29;20683;-60
2022/05/09 08:43:55;;;;;;;7.63;3.27;;;;;;;23.73;28.15;95602.06;4934732;29;20219;-60
2022/05/09 08:46:44;;;;;;;3.90;3.00;;;;;;;23.45;27.12;95597.44;4934454;29;20224;-59
2022/05/09 08:49:30;;;;;;;6.57;3.03;;;;;;;23.90;27.63;95593.19;4934618;29;20195;-54
2022/05/09 08:52:25;;;;;;;12.37;3.27;;;;;;;23.32;27.50;95598.44;4933674;29;20257;-59
2022/05/09 08:54:54;;;;;;;6.83;3.63;;;;;;;24.25;27.33;95588.47;4916927;29;20196;-61
2022/05/09 08:57:38;;;;;;;5.57;3.07;;;;;;;24.20;28.13;95596.66;4934667;29;20259;-58
2022/05/09 09:00:12;;;;;;;5.63;3.43;;;;;;;23.73;27.49;95588.69;4933602;29;20268;-59
2022/05/09 09:03:23;;;;;;;7.50;3.50;;;;;;;23.91;27.37;95590.19;4934369;29;20218;-57
2022/05/09 09:05:55;;;;;;;13.63;3.60;;;;;;;23.91;26.68;95589.38;4933715;29;20311;-58
2022/05/09 09:08:51;;;;;;;5.50;3.17;;;;;;;24.77;26.16;95584.31;4933689;29;20331;-59
2022/05/09 09:11:46;;;;;;;7.93;3.40;;;;;;;24.65;27.79;95576.22;4933811;29;20216;-62
2022/05/09 09:14:34;;;;;;;4.20;2.87;;;;;;;24.09;27.45;95580.19;4934103;29;20196;-55
2022/05/09 09:17:24;;;;;;;8.30;3.27;;;;;;;24.56;27.32;95584.28;4933987;29;20637;-61
2022/05/09 09:20:38;;;;;;;8.70;3.20;;;;;;;24.96;25.95;95580.06;4933138;29;20203;-58
2022/05/09 09:23:14;;;;;;;5.53;2.77;;;;;;;24.62;24.96;95580.31;4838169;29;20225;-58
2022/05/09 09:26:11;;;;;;;7.03;3.37;;;;;;;25.31;23.63;95566.31;4837667;29;20230;-58
2022/05/09 09:28:49;;;;;;;4.00;3.00;;;;;;;25.22;24.50;95573.69;4909846;29;20196;-58
2022/05/09 09:31:22;;;;;;;18.40;4.00;;;;;;;25.22;25.10;95571.75;4916655;29;20219;-58
2022/05/09 09:34:16;;;;;;;4.60;2.80;;;;;;;25.29;21.93;95569.31;4933855;29;20208;-59
2022/05/09 09:36:49;;;;;;;11.07;3.30;;;;;;;25.16;24.06;95569.63;4920138;29;20292;-57
2022/05/09 09:39:19;;;;;;;2.80;2.20;;;;;;;25.00;24.20;95569.44;4933589;29;20783;-58
2022/05/09 09:41:50;;;;;;;6.77;2.20;;;;;;;25.47;20.75;95553.84;4933082;29;20291;-61
2022/05/09 09:44:23;;;;;;;5.23;2.70;;;;;;;25.82;21.78;95565.75;4933706;29;20637;-57
2022/05/09 09:47:27;;;;;;;5.90;3.17;;;;;;;26.06;21.56;95559.63;4933123;29;20331;-61
2022/05/09 09:50:18;;;;;;;5.03;2.60;;;;;;;25.53;21.90;95553.28;4837357;29;20214;-60
2022/05/09 09:52:54;;;;;;;7.77;2.90;;;;;;;25.29;21.91;95557.81;4932146;29;20251;-59
2022/05/09 09:55:25;;;;;;;11.20;3.30;;;;;;;25.68;21.77;95552.66;4932799;29;20267;-61
2022/05/09 09:57:54;;;;;;;6.17;2.40;;;;;;;24.89;21.95;95555.66;4932934;29;20212;-62
2022/05/09 10:00:30;;;;;;;9.60;2.70;;;;;;;26.31;21.45;95551.22;4932817;29;20204;-56
2022/05/09 10:03:22;;;;;;;2.97;2.13;;;;;;;26.54;21.16;95552.25;4932814;29;20200;-60
2022/05/09 10:05:51;;;;;;;5.10;2.60;;;;;;;27.10;20.42;95561.16;4915140;29;20636;-57
2022/05/09 10:08:37;;;;;;;3.43;1.77;;;;;;;26.42;19.24;95548.81;4932931;29;20302;-60
2022/05/09 10:11:30;;;;;;;4.00;1.97;;;;;;;25.59;19.59;95551.19;4932755;29;20188;-59
2022/05/09 10:14:03;;;;;;;4.30;2.63;;;;;;;26.04;21.01;95541.13;4932888;29;20227;-60
2022/05/09 10:16:33;;;;;;;10.17;2.90;;;;;;;26.32;19.19;95538.53;4932781;29;20684;-52
2022/05/09 10:19:04;;;;;;;6.27;2.80;;;;;;;26.39;20.98;95542.22;4932555;29;20263;-62
2022/05/09 10:24:48;;;;;;;6.80;2.30;;;;;;;27.20;20.06;95532.97;4932851;29;20926;-60
2022/05/09 10:27:25;;;;;;;7.50;2.23;;;;;;;26.62;20.15;95537.88;4932788;29;20630;-62
2022/05/09 10:30:14;;;;;;;6.70;2.20;;;;;;;26.90;19.91;95525.28;4932242;29;20209;-60
2022/05/09 10:33:01;;;;;;;6.83;2.37;;;;;;;27.78;19.60;95532.94;4894285;29;20691;-58
2022/05/09 10:35:53;;;;;;;8.97;2.50;;;;;;;28.14;19.41;95517.63;4931827;29;20294;-54
2022/05/09 10:38:28;;;;;;;6.27;1.97;;;;;;;27.66;18.41;95534.97;4919547;29;20307;-59
2022/05/09 10:41:09;;;;;;;4.30;1.83;;;;;;;27.73;17.13;95525.13;4932327;29;20202;-62
2022/05/09 10:43:45;;;;;;;8.93;2.20;;;;;;;27.43;17.86;95532.06;4932714;29;20212;-59
2022/05/09 10:46:13;;;;;;;4.80;2.10;;;;;;;27.86;17.93;95528.50;4931782;29;20215;-59
2022/05/09 10:48:59;;;;;;;5.73;2.00;;;;;;;27.46;18.16;95530.59;4932314;29;20271;-61
2022/05/09 10:51:34;;;;;;;3.60;1.60;;;;;;;27.20;17.15;95516.81;4915040;29;20287;-56
2022/05/09 10:54:20;;;;;;;6.77;2.60;;;;;;;27.45;17.96;95524.44;4931683;29;20283;-58
2022/05/09 10:56:56;;;;;;;3.37;2.10;;;;;;;27.27;17.05;95522.38;4931550;29;20204;-57
2022/05/09 10:59:27;;;;;;;7.47;2.77;;;;;;;28.20;17.46;95517.00;4932220;29;20576;-60
2022/05/09 11:02:07;;;;;;;4.20;2.23;;;;;;;27.95;16.73;95515.66;4931950;29;20240;-52
2022/05/09 11:04:36;;;;;;;2.43;1.80;;;;;;;27.34;16.94;95522.59;4931740;29;20240;-55
2022/05/09 11:07:30;;;;;;;3.00;1.63;;;;;;;27.56;16.31;95508.53;4931659;29;20239;-61
2022/05/09 11:10:27;;;;;;;3.77;2.07;;;;;;;27.76;16.54;95507.47;4931501;29;20200;-58
2022/05/09 11:13:06;;;;;;;4.03;1.90;;;;;;;28.13;16.20;95502.59;4935925;29;20203;-58
2022/05/09 11:15:42;;;;;;;5.93;2.10;;;;;;;27.92;16.22;95502.84;4934424;29;20200;-62
2022/05/09 11:18:29;;;;;;;4.90;1.90;;;;;;;27.64;16.42;95504.91;4931687;29;20196;-57
2022/05/09 11:21:14;;;;;;;6.67;1.90;;;;;;;28.11;16.80;95500.25;4931603;29;20243;-58
2022/05/09 11:24:40;;;;;;;7.73;1.93;;;;;;;27.93;17.42;95501.75;4931622;29;20663;-62
2022/05/09 11:27:17;;;;;;;5.03;2.57;;;;;;;28.37;16.17;95495.03;4911334;29;20267;-64
2022/05/09 11:30:35;;;;;;;9.60;2.07;;;;;;;27.98;15.43;95493.41;4934463;29;20200;-58
2022/05/09 11:33:34;;;;;;;5.53;2.53;;;;;;;28.24;15.22;95496.31;4943770;29;20328;-57
2022/05/09 11:36:37;;;;;;;6.17;1.90;;;;;;;28.37;15.29;95489.66;4950773;29;20192;-61
2022/05/09 11:39:14;;;;;;;7.13;1.80;;;;;;;28.28;16.14;95491.78;4932045;29;20212;-59
2022/05/09 11:41:55;;;;;;;8.83;2.00;;;;;;;27.83;16.04;95494.97;4931149;29;20581;-55
2022/05/09 11:44:28;;;;;;;3.93;1.60;;;;;;;28.19;14.40;95483.13;4931691;29;20675;-61
2022/05/09 11:47:34;;;;;;;3.53;1.57;;;;;;;27.60;14.43;95485.19;4931377;29;20232;-59
2022/05/09 11:50:25;;;;;;;3.20;1.50;;;;;;;27.94;15.15;95476.38;4931561;29;20282;-57
2022/05/09 11:52:52;;;;;;;3.13;2.00;;;;;;;28.41;13.31;95471.63;4931600;29;20210;-60
2022/05/09 11:55:23;;;;;;;3.10;1.73;;;;;;;27.57;14.33;95483.19;4930764;29;20220;-60
2022/05/09 11:57:56;;;;;;;3.33;1.40;;;;;;;28.49;14.68;95467.94;4931546;29;20192;-62
2022/05/09 12:00:27;;;;;;;5.33;2.03;;;;;;;27.65;14.27;95474.94;4913910;29;20211;-60
2022/05/09 12:03:05;;;;;;;4.00;2.00;;;;;;;27.95;15.61;95467.19;4931291;29;20240;-58